CheckWX is a tool to help pilots better visualize weather data.  It is not intended as a substitute for an official pre-flight weather briefing.

17:46:59 UTC

KHOP TAF
Campbell AAF (Fort Campbell) Airport
Fort Campbell/Hopkinsville, Kentucky, USA
TAF KHOP 271600Z 2716/2822 14009KT 9000 -SHRA BKN008 QNH2993INS TEMPO 2717/2720 15012G20KT 8000 -SHRA VCTS OVC006CB BECMG 2720/2721 15012KT 9999 NSW BKN020 QNH2996INS BECMG 2806/2807 14006KT 4800 BR BKN020 QNH2995INS BECMG 2812/2813 VRB06KT 8000 -SHRA OVC020 QNH2994INS TX22/2721Z TN19/2811Z

May-27@
16:00 UTC

May-27 @ 16:00 UTC

May-27@
20:00 UTC

May-27 @ 20:00 UTC

TAF KHOP 271600Z 2716/2822 14009KT 9000 -SHRA BKN008 QNH2993INS

Expired

Wind
  • 140° at 9 KTS
Conditions
Light Showers, Rain
Cloud Levels
  • Broken at 800' AGL

May-27@
17:00 UTC

May-27 @ 17:00 UTC

May-27@
20:00 UTC

May-27 @ 20:00 UTC

TEMPO 2717/2720 15012G20KT 8000 -SHRA VCTS OVC006CB

Expired

Wind
  • 150° at 12 KTS
  • {Gusting to 20 KTS
Conditions
Light Showers, Rain, Area Thunderstorm
Cloud Levels
  • Overcast at 600' AGL

May-27@
20:00 UTC

May-27 @ 20:00 UTC

May-28@
06:00 UTC

May-28 @ 06:00 UTC

BECMG 2720/2721 15012KT 9999 NSW BKN020 QNH2996INS

Expired

Wind
  • 150° at 12 KTS
Conditions
No significant weather
Cloud Levels
  • Broken at 2,000' AGL

May-28@
06:00 UTC

May-28 @ 06:00 UTC

May-28@
12:00 UTC

May-28 @ 12:00 UTC

BECMG 2806/2807 14006KT 4800 BR BKN020 QNH2995INS

Expired

Wind
  • 140° at 6 KTS
Conditions
Mist
Cloud Levels
  • Broken at 2,000' AGL

May-28@
12:00 UTC

May-28 @ 12:00 UTC

May-28@
22:00 UTC

May-28 @ 22:00 UTC

BECMG 2812/2813 VRB06KT 8000 -SHRA OVC020 QNH2994INS TX22/2721Z TN19/2811Z

Becoming

Becoming Conditions expected by Thu, May 28, 2020 @ 13:00 UTC

Wind
  • Variable at 6 KTS
Conditions
Light Showers, Rain
Cloud Levels
  • Overcast at 2,000' AGL